St Mary's Airport
PASM : now visible

Aeroporto :











RITROVATECI SU...

 
LOGIN :

Iscrizione | Disclaimer

   EN    FR    IT 

 









Sommario :    VFR   VFR Marginale   IFR   IFR Intensivo   IFR Molto Intensivo
Visibilità : 
Base nubi : 
>= 8 km
>= 3000ft
5 / 8 km
1000 / 3000 ft
1500m / 5 km
500 / 1000 ft
800 / 1500m
200 / 500 ft
< 800m
< 200 ft
Simboli :   Temporali  Nebbia  Neve Forte  Precipitazioni Forti  Vento > 20 kt






- Altitudine del aeroporto : 312 ft
- Codice IATA : KSM


PASM - St Mary's

ULTIMO METAR :
  • 210056Z AUTO 05005KT 10SM OVC035 08/03 A2964 RMK AO2 SLP045 T00780033

METARs OBSOLETI :
  • 202356Z AUTO 09007KT 10SM OVC035 08/02 A2966 RMK AO2 SLP050 T00830017 10083 20044 56016
  • 202329Z AUTO 10004KT 3SM HZ OVC035 08/01 A2966 RMK AO2
  • 202316Z AUTO 10004KT 1 3/4SM HZ OVC035 08/01 A2966 RMK AO2 VIS 1/2V5
  • 202256Z AUTO 07008KT 10SM OVC035 08/02 A2967 RMK AO2 SLP055 T00830017

TAF N/A
FIR PAZA / America del Nord



MetMap, La meteo Aeronautica in un colpo d'occhio ! - Copyright ORBIFLY Dicembre 2007 - Disclaimer

ORBIFLY MET'MAP TEAM :

Programmazione e sviluppo : Alexandra Zaïnal
Concezione : Baudouin d'Aumeries
Aiuto per la programmazione : Marc-Olivier Méhu
Supporto tecnico e logistico : Manuel Goepfert
Aiuto per la traduzione : Arnaldo La Scala

Contatto : metmap@orbifly.com




FONTI E CREDITI :

   NOAA       Earth
Advisory